Time;durP1;ratioP1;P1;durP2;ratioP2;P2;SDS_P1;SDS_P2;PMS_P1;PMS_P2;Temp;Humidity;BMP_temperature;BMP_pressure;BME280_temperature;BME280_humidity;BME280_pressure;Samples;Min_cycle;Max_cycle;Signal;HPM_P1;HPM_P2
2021/06/09 00:01:27;;;;;;;15.98;7.55;;;;;;;14.91;59.71;100620.13;2093894;85;29497;-58
2021/06/09 00:04:29;;;;;;;17.80;9.03;;;;;;;14.90;59.92;100614.34;2093778;85;30457;-58
2021/06/09 00:07:31;;;;;;;13.90;8.13;;;;;;;14.89;59.76;100620.73;2059879;85;32999;-58
2021/06/09 00:10:34;;;;;;;15.03;8.18;;;;;;;14.89;60.22;100612.64;2093460;85;30218;-58
2021/06/09 00:13:37;;;;;;;13.30;8.05;;;;;;;14.90;60.17;100619.73;2093962;85;27663;-58
2021/06/09 00:16:39;;;;;;;14.58;8.63;;;;;;;14.92;60.42;100616.97;2085567;85;29528;-58
2021/06/09 00:19:41;;;;;;;12.82;8.68;;;;;;;14.93;60.58;100616.86;2081878;85;31539;-59
2021/06/09 00:22:43;;;;;;;15.60;8.95;;;;;;;14.94;60.50;100613.20;2082256;85;34090;-58
2021/06/09 00:25:51;;;;;;;18.45;9.55;;;;;;;14.98;60.74;100612.05;2086128;85;30263;-58
2021/06/09 00:28:52;;;;;;;21.57;8.78;;;;;;;14.99;60.71;100611.09;2093785;84;27690;-58
2021/06/09 00:31:54;;;;;;;18.92;8.20;;;;;;;15.03;60.92;100609.05;2093444;84;28687;-58
2021/06/09 00:34:56;;;;;;;13.35;8.18;;;;;;;15.04;60.94;100606.27;2094352;84;31549;-58
2021/06/09 00:37:58;;;;;;;12.73;8.70;;;;;;;15.09;60.90;100608.67;2102034;84;34114;-60
2021/06/09 00:41:01;;;;;;;18.25;8.90;;;;;;;15.14;61.10;100609.72;2109331;84;30315;-60
2021/06/09 00:44:05;;;;;;;13.90;8.28;;;;;;;15.17;61.12;100616.28;2109724;84;27703;-58
2021/06/09 00:47:07;;;;;;;13.75;8.65;;;;;;;15.23;61.11;100612.31;2109842;84;29680;-58
2021/06/09 00:50:10;;;;;;;16.48;8.78;;;;;;;15.28;61.54;100625.89;2109884;84;32234;-59
2021/06/09 00:53:28;;;;;;;17.92;9.58;;;;;;;15.33;61.26;100624.23;2109634;84;32957;-59
2021/06/09 00:56:34;;;;;;;14.50;10.48;;;;;;;15.39;61.24;100625.70;2109903;84;30189;-58
2021/06/09 00:59:37;;;;;;;17.42;11.22;;;;;;;15.44;61.24;100622.20;2109445;84;28172;-59
2021/06/09 01:02:39;;;;;;;21.10;10.45;;;;;;;15.48;61.38;100612.44;2109569;84;28690;-58
2021/06/09 01:05:41;;;;;;;16.25;9.60;;;;;;;15.52;61.45;100610.43;2110994;84;31900;-58
2021/06/09 01:08:44;;;;;;;16.67;9.25;;;;;;;15.58;61.44;100608.66;2115735;84;33105;-60
2021/06/09 01:11:46;;;;;;;14.73;8.80;;;;;;;15.64;61.26;100616.37;2115708;84;29531;-59
2021/06/09 01:14:48;;;;;;;14.55;9.65;;;;;;;15.70;61.13;100630.45;2076560;85;27712;-59
2021/06/09 01:17:50;;;;;;;14.65;9.28;;;;;;;15.74;61.28;100623.37;2067522;85;28492;-58
2021/06/09 01:20:53;;;;;;;15.68;9.43;;;;;;;15.76;61.22;100617.40;2067604;86;32251;-59
2021/06/09 01:23:55;;;;;;;15.40;8.80;;;;;;;15.80;61.02;100617.55;2067606;86;32966;-58
2021/06/09 01:26:58;;;;;;;15.32;8.45;;;;;;;15.85;61.03;100620.44;2046437;86;29909;-59
2021/06/09 01:30:00;;;;;;;13.55;8.90;;;;;;;15.88;61.10;100627.02;2067846;85;27679;-58
2021/06/09 01:33:03;;;;;;;15.60;8.55;;;;;;;15.92;60.97;100624.51;2067881;85;28630;-58
2021/06/09 01:36:06;;;;;;;16.02;8.60;;;;;;;15.97;60.95;100618.79;2073110;85;31021;-59
2021/06/09 01:39:15;;;;;;;15.93;8.50;;;;;;;16.00;61.03;100621.29;2081848;85;33924;-58
2021/06/09 01:42:24;;;;;;;14.58;9.23;;;;;;;16.00;60.88;100614.03;2081516;84;29812;-62
2021/06/09 01:45:29;;;;;;;13.30;9.28;;;;;;;16.05;60.85;100618.66;2082874;85;27675;-58
2021/06/09 01:48:31;;;;;;;14.53;8.90;;;;;;;16.08;60.85;100614.87;2082412;85;29476;-58
2021/06/09 01:51:33;;;;;;;14.30;8.70;;;;;;;16.10;60.71;100618.33;2081914;85;32239;-59
2021/06/09 01:54:38;;;;;;;12.73;8.48;;;;;;;16.10;60.70;100620.56;2029227;86;32959;-60
2021/06/09 01:57:39;;;;;;;11.73;8.87;;;;;;;16.10;60.66;100615.16;2000121;89;29114;-60
2021/06/09 02:00:46;;;;;;;11.55;8.58;;;;;;;16.09;60.74;100614.78;2071238;84;28026;-59
2021/06/09 02:03:49;;;;;;;13.68;9.20;;;;;;;16.07;60.74;100610.42;2116003;84;29887;-59
2021/06/09 02:06:52;;;;;;;13.45;9.73;;;;;;;16.07;60.73;100607.73;2077079;85;31794;-59
2021/06/09 02:09:54;;;;;;;14.10;8.40;;;;;;;16.06;60.66;100601.94;2081803;85;33009;-61
2021/06/09 02:13:01;;;;;;;13.88;9.20;;;;;;;16.07;60.56;100605.91;2082019;85;29727;-59
2021/06/09 02:16:03;;;;;;;9.95;8.20;;;;;;;16.07;60.56;100609.08;2082386;85;27644;-58
2021/06/09 02:19:06;;;;;;;8.60;7.67;;;;;;;16.07;60.54;100624.83;2078779;85;29474;-59
2021/06/09 02:22:08;;;;;;;10.20;8.68;;;;;;;16.07;60.60;100623.94;2076853;85;31030;-58
2021/06/09 02:25:11;;;;;;;8.95;8.05;;;;;;;16.08;60.62;100616.22;2076927;85;34110;-61
2021/06/09 02:28:14;;;;;;;10.32;7.60;;;;;;;16.10;60.53;100625.09;2078590;85;30272;-59
2021/06/09 02:31:19;;;;;;;10.35;8.30;;;;;;;16.12;60.64;100615.55;2082407;85;27627;-58
2021/06/09 02:34:24;;;;;;;10.98;7.95;;;;;;;16.12;60.74;100611.49;2082310;85;29837;-59
2021/06/09 02:37:26;;;;;;;9.68;8.03;;;;;;;16.13;60.66;100619.48;2087893;84;31163;-58
2021/06/09 02:40:27;;;;;;;8.65;7.62;;;;;;;16.11;60.56;100611.96;2100216;84;33519;-60
2021/06/09 02:43:31;;;;;;;12.78;7.70;;;;;;;16.08;60.55;100614.40;2100666;84;29007;-59
2021/06/09 02:46:47;;;;;;;9.28;7.55;;;;;;;16.05;60.57;100623.20;2101156;84;27690;-60
2021/06/09 02:49:49;;;;;;;12.07;8.08;;;;;;;16.02;60.53;100616.66;2086158;84;28623;-59
2021/06/09 02:53:18;;;;;;;9.20;8.00;;;;;;;15.97;60.60;100613.38;2083430;84;31415;-61
2021/06/09 02:56:31;;;;;;;15.45;8.60;;;;;;;15.94;60.54;100610.41;2083173;84;33500;-62
2021/06/09 03:00:00;;;;;;;9.50;7.95;;;;;;;15.91;60.68;100616.02;2088082;84;29877;-61
2021/06/09 03:03:23;;;;;;;11.30;7.50;;;;;;;15.88;60.78;100620.27;2091379;85;27687;-61
2021/06/09 03:06:42;;;;;;;12.28;9.08;;;;;;;15.85;60.89;100624.05;2090653;85;30797;-59
2021/06/09 03:10:03;;;;;;;13.88;8.83;;;;;;;15.82;60.96;100617.94;2098905;84;31117;-62
2021/06/09 03:13:28;;;;;;;11.93;8.20;;;;;;;15.79;61.00;100610.44;2093001;84;34254;-62
2021/06/09 03:16:40;;;;;;;13.68;8.03;;;;;;;15.78;61.05;100622.22;2100901;84;29888;-62
2021/06/09 03:20:03;;;;;;;12.53;7.85;;;;;;;15.78;61.29;100614.58;2093421;84;27722;-61
2021/06/09 03:23:37;;;;;;;13.32;7.92;;;;;;;15.77;61.30;100614.20;2091583;85;29033;-60
2021/06/09 03:27:02;;;;;;;9.78;7.17;;;;;;;15.79;61.49;100614.96;2049713;86;33174;-59
2021/06/09 03:30:13;;;;;;;11.60;7.13;;;;;;;15.80;61.37;100618.91;2057808;86;33051;-62
2021/06/09 03:33:16;;;;;;;7.30;5.75;;;;;;;15.85;61.32;100614.60;2059258;86;29862;-61
2021/06/09 03:36:24;;;;;;;8.93;6.70;;;;;;;15.90;61.34;100622.39;2059103;86;27880;-60
2021/06/09 03:39:28;;;;;;;9.80;6.22;;;;;;;15.95;61.37;100619.76;2043728;86;28645;-62
2021/06/09 03:42:34;;;;;;;9.15;6.53;;;;;;;16.00;61.27;100622.14;2038226;87;31763;-61
2021/06/09 03:45:43;;;;;;;8.63;6.75;;;;;;;16.05;61.36;100625.91;2038381;86;32998;-61
2021/06/09 03:48:46;;;;;;;10.60;7.00;;;;;;;16.10;61.26;100623.73;2038329;87;29455;-59
2021/06/09 03:51:48;;;;;;;10.10;6.92;;;;;;;16.16;61.28;100627.39;2038322;87;27743;-59
2021/06/09 03:54:57;;;;;;;10.23;6.53;;;;;;;16.22;61.20;100624.25;2039874;87;30032;-59
2021/06/09 03:58:00;;;;;;;10.70;7.22;;;;;;;16.30;61.27;100628.28;2044505;87;31097;-59
2021/06/09 04:01:03;;;;;;;14.73;7.10;;;;;;;16.37;61.23;100626.89;2044478;87;33220;-59
2021/06/09 04:04:07;;;;;;;12.43;7.67;;;;;;;16.45;61.11;100637.19;2071380;85;29248;-59
2021/06/09 04:07:09;;;;;;;9.33;6.20;;;;;;;16.51;60.92;100643.03;2080075;84;28386;-59
2021/06/09 04:10:13;;;;;;;9.65;5.83;;;;;;;16.63;60.90;100641.79;2075136;85;29688;-59
2021/06/09 04:13:16;;;;;;;8.13;5.47;;;;;;;16.76;60.90;100637.75;2057093;85;31898;-59
2021/06/09 04:16:18;;;;;;;9.10;5.78;;;;;;;16.92;60.57;100645.62;2077312;85;34292;-59
2021/06/09 04:19:25;;;;;;;10.43;5.75;;;;;;;17.15;60.51;100644.90;2082743;85;29388;-59
2021/06/09 04:22:27;;;;;;;8.35;4.70;;;;;;;17.43;60.20;100646.09;2082277;85;27730;-59
2021/06/09 04:25:29;;;;;;;5.72;5.03;;;;;;;17.74;60.03;100646.54;2082250;84;29501;-60
2021/06/09 04:28:32;;;;;;;9.60;4.33;;;;;;;18.00;59.46;100642.38;2077141;85;31850;-59
2021/06/09 04:31:35;;;;;;;5.75;4.30;;;;;;;18.27;59.20;100650.27;2076499;85;33815;-59
2021/06/09 04:34:49;;;;;;;5.22;4.33;;;;;;;18.50;58.85;100653.06;2078001;85;28469;-62
2021/06/09 04:37:53;;;;;;;10.43;3.83;;;;;;;18.68;58.33;100646.67;2083112;85;27894;-61
2021/06/09 04:40:55;;;;;;;4.83;4.33;;;;;;;19.04;57.76;100654.28;2091142;84;29528;-61
2021/06/09 04:43:59;;;;;;;6.42;4.28;;;;;;;19.04;57.76;100654.28;2091014;85;31501;-61
2021/06/09 04:47:03;;;;;;;7.10;4.20;;;;;;;19.31;57.53;100653.04;2066084;85;33851;-60
2021/06/09 04:50:07;;;;;;;6.13;3.97;;;;;;;19.69;57.20;100656.35;2066363;85;29191;-60
2021/06/09 04:53:12;;;;;;;6.87;3.65;;;;;;;20.21;56.74;100650.25;2066385;85;27644;-61
2021/06/09 04:56:14;;;;;;;4.22;3.45;;;;;;;20.62;55.88;100648.58;2084631;84;29487;-61
2021/06/09 04:59:18;;;;;;;5.30;3.20;;;;;;;20.87;55.41;100641.88;2091270;84;31038;-60
2021/06/09 05:02:20;;;;;;;6.08;3.75;;;;;;;21.06;54.57;100649.80;2091168;85;32975;-60
2021/06/09 05:05:23;;;;;;;5.85;3.52;;;;;;;21.19;54.28;100650.90;2095048;84;29864;-61
2021/06/09 05:08:25;;;;;;;3.87;3.50;;;;;;;21.36;54.03;100660.31;2100983;83;27654;-60
2021/06/09 05:11:38;;;;;;;5.65;3.60;;;;;;;21.50;52.91;100668.10;2100547;84;29895;-62
2021/06/09 05:15:08;;;;;;;10.15;3.35;;;;;;;21.62;52.65;100661.20;2098623;84;31930;-59
2021/06/09 05:18:24;;;;;;;5.22;3.40;;;;;;;21.74;52.29;100661.47;2091016;84;34178;-62
2021/06/09 05:21:31;;;;;;;8.10;3.60;;;;;;;21.82;52.17;100668.43;2049983;86;29906;-60
2021/06/09 05:24:34;;;;;;;3.25;2.95;;;;;;;22.02;51.49;100664.37;2050911;86;27727;-60
2021/06/09 05:27:38;;;;;;;3.83;3.37;;;;;;;22.21;50.81;100665.39;2025875;87;28756;-59
2021/06/09 05:30:42;;;;;;;4.53;3.70;;;;;;;22.56;50.69;100659.88;2025715;87;31038;-60
2021/06/09 05:33:45;;;;;;;5.00;3.77;;;;;;;22.82;49.98;100662.85;2026013;87;33752;-61
2021/06/09 05:36:48;;;;;;;3.87;3.52;;;;;;;22.83;49.06;100663.21;2013939;86;29875;-61
2021/06/09 05:39:57;;;;;;;5.50;3.50;;;;;;;22.84;48.62;100662.17;2049867;86;27857;-61
2021/06/09 05:42:56;;;;;;;5.20;3.50;;;;;;;23.02;48.90;100665.50;2028125;86;29389;-60
2021/06/09 05:46:06;;;;;;;4.33;3.47;;;;;;;23.19;48.44;100657.89;2051111;86;32411;-59
2021/06/09 05:49:08;;;;;;;7.58;3.95;;;;;;;23.65;48.10;100658.52;2027817;86;33011;-60
2021/06/09 05:52:12;;;;;;;7.97;3.35;;;;;;;24.43;47.28;100662.06;2049582;86;29945;-60
2021/06/09 05:55:16;;;;;;;4.57;3.87;;;;;;;25.26;46.75;100657.16;2059478;85;27634;-60
2021/06/09 05:58:20;;;;;;;;;;;;;;;26.00;44.83;100667.55;2070647;85;28663;-60
2021/06/09 06:01:22;;;;;;;5.22;3.70;;;;;;;26.74;43.91;100670.00;2071953;84;31863;-62
2021/06/09 06:04:23;;;;;;;4.05;3.65;;;;;;;27.35;43.03;100669.03;2091853;84;33048;-62
2021/06/09 06:07:26;;;;;;;4.00;3.60;;;;;;;28.04;42.23;100666.16;2092452;84;29385;-60
2021/06/09 06:10:27;;;;;;;4.05;3.22;;;;;;;28.62;41.16;100666.59;2079943;85;27689;-63
2021/06/09 06:13:30;;;;;;;4.90;3.25;;;;;;;29.16;40.64;100667.96;2079962;85;28643;-63
2021/06/09 06:16:32;;;;;;;4.62;3.20;;;;;;;29.61;39.35;100671.57;2095013;84;31094;-64
2021/06/09 06:19:36;;;;;;;6.30;3.77;;;;;;;30.04;38.83;100671.34;2100691;84;32999;-63
2021/06/09 06:22:38;;;;;;;;;;;;;;;30.47;37.86;100667.21;2102741;84;29410;-64
2021/06/09 06:25:43;;;;;;;5.45;3.80;;;;;;;30.84;36.25;100670.75;2100748;84;27770;-63
2021/06/09 06:28:49;;;;;;;7.85;3.50;;;;;;;31.17;36.23;100673.43;2100597;84;30408;-64
2021/06/09 06:41:28;;;;;;;5.55;3.87;;;;;;;32.11;32.66;100668.29;1937797;85;27762;-61
2021/06/09 06:44:33;;;;;;;4.95;3.87;;;;;;;32.26;33.09;100673.17;1970166;90;28713;-61
2021/06/09 06:47:38;;;;;;;7.35;4.00;;;;;;;32.43;32.52;100673.61;1970311;90;31661;-61
2021/06/09 06:51:04;;;;;;;6.50;3.60;;;;;;;32.80;31.79;100669.00;1964974;90;33848;-61
2021/06/09 06:57:28;;;;;;;5.75;3.75;;;;;;;33.12;31.44;100666.97;1968401;86;27611;-65
2021/06/09 07:00:46;;;;;;;7.95;4.20;;;;;;;33.29;30.38;100670.11;1977718;90;27824;-64
2021/06/09 07:03:44;;;;;;;7.25;3.70;;;;;;;33.16;30.25;100672.41;1977210;90;27629;-64
2021/06/09 07:06:48;;;;;;;6.37;4.10;;;;;;;33.30;30.32;100680.16;2051935;86;34030;-64
2021/06/09 07:09:50;;;;;;;6.78;4.28;;;;;;;33.47;29.81;100670.85;2030174;83;29166;-61
2021/06/09 07:13:05;;;;;;;4.55;3.83;;;;;;;33.63;29.27;100680.60;1979710;88;27708;-68
2021/06/09 07:16:09;;;;;;;;;;;;;;;33.51;29.14;100678.20;1942345;88;28687;-68
2021/06/09 07:19:11;;;;;;;5.40;3.83;;;;;;;33.44;28.69;100683.23;2006165;88;31772;-62
2021/06/09 07:22:15;;;;;;;9.00;3.92;;;;;;;33.38;28.99;100673.53;2051851;83;34676;-57
2021/06/09 07:25:17;;;;;;;;;;;;;;;33.46;28.62;100678.87;2090393;84;29225;-64
2021/06/09 07:28:22;;;;;;;9.43;4.33;;;;;;;33.55;28.62;100681.70;2086989;84;27797;-58
2021/06/09 07:31:32;;;;;;;5.40;3.62;;;;;;;33.60;28.46;100673.57;2037896;86;28733;-59
2021/06/09 07:34:34;;;;;;;6.15;4.40;;;;;;;33.74;28.40;100677.67;2000660;87;31036;-59
2021/06/09 07:37:45;;;;;;;6.70;3.60;;;;;;;33.79;27.76;100679.27;2018686;87;32950;-58
2021/06/09 07:40:55;;;;;;;6.75;3.95;;;;;;;33.88;27.54;100677.08;2061527;86;29891;-58
2021/06/09 07:44:03;;;;;;;4.40;3.40;;;;;;;33.88;27.11;100677.91;2066712;84;27544;-64
2021/06/09 07:47:11;;;;;;;3.55;3.05;;;;;;;33.92;27.28;100676.98;2087084;84;27548;-57
2021/06/09 07:50:14;;;;;;;3.52;2.90;;;;;;;33.88;26.40;100684.03;2075312;85;31081;-61
2021/06/09 07:53:18;;;;;;;6.35;2.87;;;;;;;33.56;25.63;100675.62;2075735;85;32918;-62
2021/06/09 07:56:21;;;;;;;7.22;2.92;;;;;;;33.18;25.53;100678.05;2075758;85;29111;-57
2021/06/09 07:59:23;;;;;;;6.53;2.42;;;;;;;32.99;26.02;100684.50;2075896;85;27536;-60
2021/06/09 08:02:25;;;;;;;2.95;2.33;;;;;;;33.12;25.84;100676.14;2076070;85;28727;-57
2021/06/09 08:05:28;;;;;;;2.58;2.35;;;;;;;33.09;25.90;100681.28;2076044;85;31231;-57
2021/06/09 08:08:31;;;;;;;4.75;2.50;;;;;;;33.09;25.15;100678.50;2076188;85;33809;-61
2021/06/09 08:11:33;;;;;;;4.75;2.35;;;;;;;32.99;25.12;100683.11;2076235;85;29093;-57
2021/06/09 08:14:35;;;;;;;4.90;2.33;;;;;;;32.86;25.21;100685.35;2076421;85;27495;-61
2021/06/09 08:17:40;;;;;;;5.03;2.25;;;;;;;32.84;25.26;100680.58;2076505;85;28715;-57
2021/06/09 08:21:12;;;;;;;3.75;2.17;;;;;;;32.79;24.85;100685.88;2080938;84;31072;-57
2021/06/09 08:24:14;;;;;;;3.77;2.20;;;;;;;32.72;25.25;100681.17;2086068;84;33062;-62
2021/06/09 08:27:16;;;;;;;13.78;2.50;;;;;;;32.59;25.28;100685.34;2084598;85;29078;-62
2021/06/09 08:30:20;;;;;;;4.45;2.02;;;;;;;32.53;25.32;100685.67;2084690;85;27919;-65
2021/06/09 08:33:22;;;;;;;1.95;1.70;;;;;;;32.54;25.15;100691.54;2071870;85;29614;-63
2021/06/09 08:36:24;;;;;;;2.77;1.87;;;;;;;32.55;24.94;100687.70;2092181;84;30258;-65
2021/06/09 08:39:26;;;;;;;15.32;2.47;;;;;;;32.39;24.96;100693.11;2076189;85;33033;-66
2021/06/09 08:42:33;;;;;;;7.20;1.90;;;;;;;32.20;25.19;100696.15;2041837;86;28519;-65
2021/06/09 08:45:36;;;;;;;3.17;2.00;;;;;;;32.18;25.09;100690.50;2060980;86;27512;-66
2021/06/09 08:48:41;;;;;;;15.47;2.80;;;;;;;32.16;25.39;100685.16;2061892;85;29419;-66
2021/06/09 08:51:44;;;;;;;9.25;2.05;;;;;;;32.19;25.35;100686.64;2066465;84;30969;-58
2021/06/09 08:54:48;;;;;;;2.30;1.82;;;;;;;32.10;24.95;100681.86;2022732;86;33574;-57
2021/06/09 08:57:51;;;;;;;3.70;1.80;;;;;;;31.91;25.14;100684.87;2039488;86;29062;-57
2021/06/09 09:00:52;;;;;;;2.27;1.77;;;;;;;31.71;24.80;100687.03;2038149;86;27583;-59
2021/06/09 09:03:54;;;;;;;3.52;1.60;;;;;;;31.44;24.96;100685.52;2027018;86;29627;-72
2021/06/09 09:06:56;;;;;;;10.55;2.17;;;;;;;31.29;25.40;100678.70;2031873;86;31908;-58
2021/06/09 09:09:59;;;;;;;2.25;1.82;;;;;;;31.19;25.51;100687.92;2043769;86;47621;-58
2021/06/09 09:13:01;;;;;;;1.65;1.30;;;;;;;31.05;25.23;100685.05;2073820;84;29081;-61
2021/06/09 09:16:03;;;;;;;3.83;1.50;;;;;;;30.97;25.13;100686.56;2064764;84;27548;-59
2021/06/09 09:19:12;;;;;;;1.25;1.15;;;;;;;30.83;24.55;100687.53;2058298;85;29440;-57
2021/06/09 09:22:10;;;;;;;11.10;1.90;;;;;;;30.68;24.63;100684.33;2057688;84;31909;-58
2021/06/09 09:25:17;;;;;;;2.60;1.25;;;;;;;30.59;24.76;100692.45;2037551;86;33242;-58
2021/06/09 09:28:30;;;;;;;3.25;1.40;;;;;;;30.34;24.57;100691.97;2042327;85;29155;-61
2021/06/09 09:31:49;;;;;;;2.67;1.50;;;;;;;30.04;24.06;100689.30;2032916;85;27841;-57
2021/06/09 09:34:52;;;;;;;4.17;1.42;;;;;;;29.69;23.89;100693.56;2043206;85;28713;-56
2021/06/09 09:38:28;;;;;;;3.80;1.10;;;;;;;29.48;24.03;100697.09;2024157;85;31039;-57
2021/06/09 09:41:32;;;;;;;50.75;4.08;;;;;;;29.36;23.52;100695.87;2035473;85;33769;-57
2021/06/09 09:44:36;;;;;;;2.98;1.30;;;;;;;29.22;23.69;100695.65;2029855;85;29088;-56
2021/06/09 09:47:38;;;;;;;2.90;1.32;;;;;;;29.15;24.07;100696.06;2041712;85;27488;-60
2021/06/09 09:50:52;;;;;;;7.50;1.40;;;;;;;29.13;24.11;100693.17;2042105;85;28590;-58
2021/06/09 09:53:58;;;;;;;1.98;1.45;;;;;;;29.00;24.41;100689.67;2032194;85;31817;-56
2021/06/09 09:57:09;;;;;;;10.80;1.40;;;;;;;28.82;24.74;100689.50;2038952;85;33767;-60
2021/06/09 10:00:12;;;;;;;16.75;1.72;;;;;;;28.65;24.85;100692.91;2015808;85;29662;-61
2021/06/09 10:03:19;;;;;;;3.52;1.50;;;;;;;28.38;24.90;100702.07;2048521;85;27500;-62
2021/06/09 10:06:30;;;;;;;7.28;1.57;;;;;;;28.10;25.47;100696.27;2034542;86;28619;-57
2021/06/09 10:09:43;;;;;;;2.20;1.60;;;;;;;27.87;26.03;100698.42;2027046;86;30948;-62
2021/06/09 10:13:15;;;;;;;2.17;1.27;;;;;;;27.60;26.23;100695.13;2038932;85;32940;-62
2021/06/09 10:16:28;;;;;;;1.15;1.15;;;;;;;27.48;26.60;100699.28;2042930;85;29336;-57
2021/06/09 10:19:35;;;;;;;4.50;1.35;;;;;;;27.30;26.58;100703.12;2045136;85;27584;-59
2021/06/09 10:22:42;;;;;;;2.33;1.85;;;;;;;27.17;27.09;100702.78;2036607;85;28739;-60
2021/06/09 10:25:44;;;;;;;4.65;1.40;;;;;;;27.10;27.23;100702.63;2067375;84;31992;-60
2021/06/09 10:29:04;;;;;;;3.17;1.30;;;;;;;27.02;27.57;100701.28;2025560;86;33051;-58
2021/06/09 10:32:10;;;;;;;3.67;1.20;;;;;;;26.96;27.48;100711.09;2020520;86;29108;-57
2021/06/09 10:35:13;;;;;;;1.77;1.30;;;;;;;26.73;27.12;100701.27;1994137;89;27772;-70
2021/06/09 10:38:16;;;;;;;1.45;1.30;;;;;;;26.59;27.81;100700.93;2009248;87;28786;-57
2021/06/09 10:41:22;;;;;;;1.85;1.10;;;;;;;26.43;27.75;100690.81;2052088;86;30975;-57
2021/06/09 10:44:29;;;;;;;1.80;1.02;;;;;;;26.31;28.13;100699.05;2045798;86;34061;-57
2021/06/09 10:47:34;;;;;;;3.70;0.90;;;;;;;26.18;27.54;100694.89;2019688;88;29016;-56
2021/06/09 10:50:37;;;;;;;1.42;0.80;;;;;;;26.05;27.62;100698.12;2019962;88;27523;-56
2021/06/09 10:53:39;;;;;;;4.67;0.90;;;;;;;25.97;28.20;100708.22;2020334;88;29880;-57
2021/06/09 10:56:47;;;;;;;0.93;0.80;;;;;;;25.86;27.15;100702.52;2018277;88;31024;-58
2021/06/09 10:59:49;;;;;;;3.45;1.30;;;;;;;25.69;28.08;100695.61;2017069;87;33011;-57
2021/06/09 11:02:55;;;;;;;1.10;1.00;;;;;;;25.61;28.50;100685.45;2018165;88;29036;-56
2021/06/09 11:06:05;;;;;;;1.07;0.95;;;;;;;25.60;28.70;100686.48;2019999;87;27594;-63
2021/06/09 11:09:28;;;;;;;1.80;1.17;;;;;;;25.61;28.90;100683.21;2020696;88;28745;-63
2021/06/09 11:12:33;;;;;;;2.77;1.15;;;;;;;25.63;29.30;100677.92;2020107;87;31861;-62
2021/06/09 11:15:36;;;;;;;2.58;1.07;;;;;;;25.67;28.83;100671.58;2018895;87;33002;-57
2021/06/09 11:18:45;;;;;;;10.43;1.05;;;;;;;25.68;29.03;100676.55;2018056;88;29091;-57
2021/06/09 11:21:47;;;;;;;5.25;1.12;;;;;;;25.71;28.58;100687.19;2000487;88;27612;-59
2021/06/09 11:25:14;;;;;;;1.30;0.98;;;;;;;25.60;28.60;100674.63;2015310;87;29284;-59
2021/06/09 11:28:20;;;;;;;1.45;1.35;;;;;;;25.56;28.45;100671.89;2013885;86;31167;-56
2021/06/09 11:31:28;;;;;;;3.58;1.35;;;;;;;25.48;28.52;100678.21;1994254;89;32936;-58
2021/06/09 11:34:35;;;;;;;4.60;1.07;;;;;;;25.41;28.70;100681.22;1986084;87;29010;-56
2021/06/09 11:37:37;;;;;;;1.67;1.15;;;;;;;25.36;29.10;100675.36;2020950;87;27795;-56
2021/06/09 11:41:05;;;;;;;8.03;1.55;;;;;;;25.30;29.08;100664.04;2024656;88;28699;-57
2021/06/09 11:44:27;;;;;;;2.08;1.10;;;;;;;25.34;29.10;100666.78;2024417;87;31848;-59
2021/06/09 11:47:29;;;;;;;1.85;1.22;;;;;;;25.36;28.88;100664.38;1993686;88;33113;-56
2021/06/09 11:50:31;;;;;;;3.60;1.42;;;;;;;25.29;29.04;100661.44;2002203;88;29007;-56
2021/06/09 11:53:42;;;;;;;1.40;1.30;;;;;;;25.17;29.19;100654.88;2001859;88;27629;-58
2021/06/09 11:56:51;;;;;;;3.22;1.30;;;;;;;25.10;29.42;100650.22;1999350;89;29358;-56
2021/06/09 11:59:53;;;;;;;2.37;1.40;;;;;;;25.05;30.04;100640.24;1999582;89;31127;-57
2021/06/09 12:03:21;;;;;;;2.25;1.30;;;;;;;25.10;30.26;100636.51;1956274;89;32970;-58
2021/06/09 12:06:24;;;;;;;6.50;1.62;;;;;;;25.14;30.25;100641.50;1999253;88;29794;-56
2021/06/09 12:09:38;;;;;;;9.18;2.77;;;;;;;25.16;30.20;100641.31;2001638;88;27900;-57
2021/06/09 12:12:40;;;;;;;1.77;1.07;;;;;;;25.13;30.38;100643.05;1999202;89;28783;-58
2021/06/09 12:15:43;;;;;;;2.77;1.42;;;;;;;25.12;30.39;100642.16;2001095;88;31131;-59
2021/06/09 12:18:46;;;;;;;5.30;1.27;;;;;;;25.08;30.05;100632.54;2000299;89;33977;-57
2021/06/09 12:21:48;;;;;;;6.03;1.20;;;;;;;25.06;30.31;100628.25;2004036;86;29722;-57
2021/06/09 12:25:10;;;;;;;2.30;1.62;;;;;;;25.03;30.17;100621.23;2063575;85;27548;-57
2021/06/09 12:28:13;;;;;;;1.20;0.98;;;;;;;25.02;30.26;100616.77;2063604;86;28855;-56
2021/06/09 12:31:17;;;;;;;1.82;0.90;;;;;;;25.03;29.95;100623.97;2063555;86;31649;-58
2021/06/09 12:34:26;;;;;;;1.30;1.10;;;;;;;25.04;30.22;100624.31;2064423;85;32972;-59
2021/06/09 12:37:30;;;;;;;1.90;1.20;;;;;;;25.01;30.21;100622.73;2078076;85;30487;-56
2021/06/09 12:40:42;;;;;;;5.03;1.12;;;;;;;24.97;30.19;100609.53;2078983;85;27580;-56
2021/06/09 12:43:51;;;;;;;1.60;1.30;;;;;;;24.99;30.20;100614.34;2078442;84;28488;-58
2021/06/09 12:47:00;;;;;;;4.30;1.37;;;;;;;24.93;29.77;100613.13;2064719;85;31199;-57
2021/06/09 12:50:16;;;;;;;2.20;1.10;;;;;;;24.87;29.73;100602.80;2039588;84;32594;-56
2021/06/09 12:53:23;;;;;;;4.50;1.90;;;;;;;24.87;30.32;100601.42;2046381;85;29377;-56
2021/06/09 12:56:26;;;;;;;2.40;0.95;;;;;;;24.89;29.87;100602.13;2070404;84;27520;-60
2021/06/09 12:59:37;;;;;;;2.42;1.40;;;;;;;24.89;29.99;100596.64;2064286;86;29088;-57
2021/06/09 13:02:39;;;;;;;0.95;0.95;;;;;;;24.90;30.27;100595.63;2076460;85;31027;-57
2021/06/09 13:06:11;;;;;;;3.27;1.37;;;;;;;24.95;30.60;100600.11;2059397;85;33595;-57
2021/06/09 13:09:20;;;;;;;2.22;1.67;;;;;;;24.98;30.67;100590.70;2026691;87;29323;-60
2021/06/09 13:12:30;;;;;;;2.75;1.20;;;;;;;25.00;30.67;100586.76;2026678;87;27723;-59
2021/06/09 13:15:34;;;;;;;1.10;1.10;;;;;;;24.96;30.55;100584.52;2025834;87;28715;-59
2021/06/09 13:18:53;;;;;;;8.03;1.32;;;;;;;24.94;30.53;100578.33;2008247;87;32165;-57
2021/06/09 13:21:56;;;;;;;6.65;1.27;;;;;;;24.97;30.68;100576.64;2026529;87;33056;-56
2021/06/09 13:24:58;;;;;;;4.95;1.10;;;;;;;25.02;30.89;100579.23;2029461;87;29354;-58
2021/06/09 13:28:01;;;;;;;2.60;1.12;;;;;;;25.04;31.04;100573.60;2017658;88;27580;-57
2021/06/09 13:31:03;;;;;;;2.35;1.40;;;;;;;25.06;30.53;100581.16;2017597;88;28806;-60
2021/06/09 13:34:05;;;;;;;2.80;1.32;;;;;;;25.02;30.55;100574.28;2017445;88;31255;-58
2021/06/09 13:37:18;;;;;;;1.62;1.52;;;;;;;25.01;30.79;100569.81;2017090;88;33034;-60
2021/06/09 13:40:25;;;;;;;3.33;1.50;;;;;;;25.02;30.78;100567.42;2033297;87;29390;-58
2021/06/09 13:43:30;;;;;;;2.62;1.50;;;;;;;25.06;30.64;100566.08;2041650;87;27841;-56
2021/06/09 13:46:51;;;;;;;1.85;1.55;;;;;;;25.10;30.62;100561.12;2002419;88;28666;-59
2021/06/09 13:49:59;;;;;;;2.42;1.27;;;;;;;25.12;30.30;100558.55;2072676;85;31093;-56
2021/06/09 13:53:05;;;;;;;1.47;1.37;;;;;;;25.11;30.67;100558.20;2071780;85;33727;-56
2021/06/09 13:56:07;;;;;;;2.17;1.20;;;;;;;25.13;30.42;100556.68;2072583;85;29378;-58
2021/06/09 13:59:20;;;;;;;1.42;1.17;;;;;;;25.16;30.42;100550.84;2034972;87;27593;-56
2021/06/09 14:02:32;;;;;;;1.45;1.20;;;;;;;25.18;30.06;100551.53;2045973;86;28610;-58
2021/06/09 14:05:36;;;;;;;2.85;1.17;;;;;;;25.22;30.41;100558.41;2073581;85;31063;-58
2021/06/09 14:08:40;;;;;;;1.60;0.90;;;;;;;25.27;30.47;100547.81;2075441;85;33039;-59
2021/06/09 14:12:05;;;;;;;4.87;1.70;;;;;;;25.30;30.24;100546.12;2075418;85;30285;-58
2021/06/09 14:15:16;;;;;;;4.00;1.42;;;;;;;25.31;30.02;100538.23;2075730;85;27578;-61
2021/06/09 14:18:21;;;;;;;1.85;1.45;;;;;;;25.35;30.40;100544.23;2039543;87;28597;-62
2021/06/09 14:21:28;;;;;;;10.55;1.98;;;;;;;25.40;30.04;100540.45;2039515;87;31844;-57
2021/06/09 14:24:31;;;;;;;4.12;1.60;;;;;;;25.41;30.57;100537.22;1999719;88;32960;-59
2021/06/09 14:27:50;;;;;;;1.27;1.17;;;;;;;25.41;30.66;100538.59;1993957;87;30208;-63
2021/06/09 14:30:57;;;;;;;3.60;1.20;;;;;;;25.40;30.19;100534.97;1993159;89;27486;-58
2021/06/09 14:34:09;;;;;;;4.60;1.10;;;;;;;25.33;29.69;100536.16;1993073;89;28483;-62
2021/06/09 14:37:20;;;;;;;3.92;1.70;;;;;;;25.31;29.96;100533.25;2008557;87;30453;-57
2021/06/09 14:40:18;;;;;;;4.28;1.37;;;;;;;25.30;30.18;100531.03;2017311;87;33044;-64